Time;durP1;ratioP1;P1;durP2;ratioP2;P2;SDS_P1;SDS_P2;PMS_P1;PMS_P2;Temp;Humidity;BMP_temperature;BMP_pressure;BME280_temperature;BME280_humidity;BME280_pressure;Samples;Min_cycle;Max_cycle;Signal;HPM_P1;HPM_P2
2022/06/30 00:00:32;;;;;;;6.03;4.25;;;21.20;99.90;;;;;;10135360;29;20096;-62
2022/06/30 00:05:33;;;;;;;8.00;4.88;;;21.20;99.90;;;;;;10139755;29;20120;-63
2022/06/30 00:10:35;;;;;;;8.80;4.45;;;21.20;99.90;;;;;;10155202;28;20539;-61
2022/06/30 00:15:37;;;;;;;8.68;4.78;;;21.20;99.90;;;;;;10141346;29;20087;-62
2022/06/30 00:20:39;;;;;;;6.70;4.60;;;21.20;99.90;;;;;;10150180;28;20056;-63
2022/06/30 00:25:41;;;;;;;7.40;4.45;;;21.20;99.90;;;;;;10145643;29;20059;-62
2022/06/30 00:30:42;;;;;;;8.45;4.85;;;21.20;99.90;;;;;;10154476;29;20108;-62
2022/06/30 00:35:45;;;;;;;9.45;4.10;;;21.30;99.90;;;;;;10183488;29;20063;-62
2022/06/30 00:40:47;;;;;;;5.60;4.05;;;21.30;99.90;;;;;;10177780;29;20074;-63
2022/06/30 00:45:49;;;;;;;12.63;5.05;;;21.30;99.90;;;;;;10167375;29;20064;-64
2022/06/30 00:50:51;;;;;;;6.53;4.60;;;21.20;99.90;;;;;;10167991;29;20044;-62
2022/06/30 00:55:55;;;;;;;9.50;5.10;;;21.20;99.90;;;;;;10167561;29;20060;-61
2022/06/30 01:00:58;;;;;;;6.93;4.80;;;21.10;99.90;;;;;;10175396;29;20522;-61
2022/06/30 01:06:05;;;;;;;5.65;4.18;;;21.00;99.90;;;;;;10183684;28;20400;-62
2022/06/30 01:16:27;;;;;;;8.65;5.22;;;20.90;99.90;;;;;;10180990;29;20522;-61
2022/06/30 01:21:29;;;;;;;8.77;5.00;;;20.80;99.90;;;;;;10168711;29;20472;-62
2022/06/30 01:26:31;;;;;;;9.38;5.03;;;20.70;99.90;;;;;;10188160;29;20059;-61
2022/06/30 01:31:33;;;;;;;7.50;5.60;;;20.60;99.90;;;;;;10191315;29;20052;-61
2022/06/30 01:36:34;;;;;;;9.90;5.28;;;20.40;99.90;;;;;;10185444;29;20051;-62
2022/06/30 01:41:36;;;;;;;8.05;5.60;;;20.40;99.90;;;;;;10192788;28;20052;-62
2022/06/30 01:46:46;;;;;;;9.20;5.28;;;20.40;99.90;;;;;;10182687;29;20067;-62
2022/06/30 01:51:47;;;;;;;8.95;5.40;;;20.40;99.90;;;;;;10184304;29;20060;-62
2022/06/30 01:56:49;;;;;;;9.63;4.93;;;20.30;99.90;;;;;;10177453;29;20063;-65
2022/06/30 02:01:51;;;;;;;8.05;4.85;;;20.20;99.90;;;;;;10186813;29;20107;-65
2022/06/30 02:06:53;;;;;;;11.55;6.03;;;20.20;99.90;;;;;;10191499;29;20126;-65
2022/06/30 02:12:45;;;;;;;9.95;5.50;;;20.10;99.90;;;;;;10181731;29;20143;-65
2022/06/30 02:17:17;;;;;;;8.05;5.13;;;20.00;99.90;;;;;;10177847;29;20565;-65
2022/06/30 02:22:18;;;;;;;9.93;5.50;;;19.90;99.90;;;;;;10176662;29;20115;-66
2022/06/30 02:27:23;;;;;;;6.20;4.80;;;19.90;99.90;;;;;;10181434;29;20408;-65
2022/06/30 02:32:25;;;;;;;10.13;5.50;;;19.90;99.90;;;;;;10180878;29;20107;-65
2022/06/30 02:37:27;;;;;;;12.43;5.53;;;19.90;99.90;;;;;;10181329;29;20062;-65
2022/06/30 02:42:28;;;;;;;13.38;5.22;;;19.90;99.90;;;;;;10188922;29;20553;-64
2022/06/30 02:47:35;;;;;;;8.02;5.68;;;19.80;99.90;;;;;;10183325;29;20123;-66
2022/06/30 02:52:38;;;;;;;12.15;5.50;;;19.80;99.90;;;;;;10179213;29;20060;-66
2022/06/30 02:57:39;;;;;;;12.68;5.32;;;19.70;99.90;;;;;;10176406;29;20126;-66
2022/06/30 03:02:41;;;;;;;8.05;5.47;;;19.70;99.90;;;;;;10183164;29;20056;-66
2022/06/30 03:07:43;;;;;;;11.55;5.28;;;19.60;99.90;;;;;;10188863;29;20048;-66
2022/06/30 03:12:45;;;;;;;13.43;6.80;;;19.60;99.90;;;;;;10176600;29;20434;-63
2022/06/30 03:17:46;;;;;;;9.43;5.93;;;19.50;99.90;;;;;;10188307;29;20446;-65
2022/06/30 03:22:48;;;;;;;11.88;5.80;;;19.50;99.90;;;;;;10182004;29;20059;-65
2022/06/30 03:27:50;;;;;;;9.43;6.10;;;19.40;99.90;;;;;;10169506;29;20062;-64
2022/06/30 03:32:51;;;;;;;9.40;5.32;;;19.30;99.90;;;;;;10177097;29;20350;-64
2022/06/30 03:37:53;;;;;;;13.88;7.13;;;19.30;99.90;;;;;;10177286;29;20056;-64
2022/06/30 03:42:55;;;;;;;14.80;6.82;;;19.30;99.90;;;;;;10170625;29;20463;-65
2022/06/30 03:48:00;;;;;;;12.02;6.25;;;19.30;99.90;;;;;;10182244;29;20059;-64
2022/06/30 03:53:02;;;;;;;13.00;6.25;;;19.30;99.90;;;;;;10187170;29;20048;-65
2022/06/30 03:58:04;;;;;;;12.25;7.10;;;19.30;99.90;;;;;;10176186;29;20130;-64
2022/06/30 04:03:06;;;;;;;11.07;6.95;;;19.30;99.90;;;;;;10170539;29;20075;-64
2022/06/30 04:08:08;;;;;;;17.85;7.47;;;19.20;99.90;;;;;;10175436;29;20055;-65
2022/06/30 04:13:09;;;;;;;14.00;7.70;;;19.10;99.90;;;;;;10179404;29;20048;-65
2022/06/30 04:18:12;;;;;;;17.95;7.63;;;19.10;99.90;;;;;;10153033;29;20119;-64
2022/06/30 04:23:13;;;;;;;13.80;8.05;;;19.20;99.90;;;;;;10175299;29;20051;-64
2022/06/30 04:28:15;;;;;;;17.40;7.40;;;19.20;99.90;;;;;;10188209;29;20110;-66
2022/06/30 04:33:17;;;;;;;15.65;8.13;;;19.30;99.90;;;;;;10175562;29;20154;-65
2022/06/30 04:38:18;;;;;;;16.88;8.65;;;19.40;99.90;;;;;;10170571;29;20123;-65
2022/06/30 04:43:20;;;;;;;15.40;8.20;;;19.40;99.90;;;;;;10172824;29;20059;-65
2022/06/30 04:48:22;;;;;;;15.63;8.45;;;19.40;99.90;;;;;;10181643;29;20059;-65
2022/06/30 04:53:24;;;;;;;18.63;9.30;;;19.50;99.90;;;;;;10164331;29;20436;-64
2022/06/30 04:58:26;;;;;;;16.77;9.00;;;19.60;99.90;;;;;;10179905;29;20060;-65
2022/06/30 05:03:28;;;;;;;20.25;7.85;;;19.60;99.90;;;;;;10179022;29;20548;-63
2022/06/30 05:08:30;;;;;;;15.48;8.07;;;19.70;99.90;;;;;;10170806;29;20127;-64
2022/06/30 05:13:31;;;;;;;17.98;8.65;;;19.70;99.90;;;;;;10157450;29;20063;-64
2022/06/30 05:18:33;;;;;;;15.52;8.27;;;19.80;99.90;;;;;;10163745;29;20086;-64
2022/06/30 05:23:35;;;;;;;14.27;8.52;;;19.80;99.90;;;;;;10165280;29;20064;-65
2022/06/30 05:28:36;;;;;;;16.85;8.02;;;19.90;99.90;;;;;;10188209;29;20122;-64
2022/06/30 05:33:38;;;;;;;13.45;8.00;;;19.90;99.90;;;;;;10178833;29;20063;-65
2022/06/30 05:38:40;;;;;;;17.90;8.43;;;20.00;99.90;;;;;;10169848;29;20052;-64
2022/06/30 05:43:41;;;;;;;14.60;7.97;;;20.10;99.90;;;;;;10173800;29;20059;-65
2022/06/30 05:48:43;;;;;;;19.25;8.73;;;20.20;99.90;;;;;;10178230;29;20146;-64
2022/06/30 05:53:46;;;;;;;14.20;7.35;;;20.30;99.90;;;;;;10179618;28;20087;-63
2022/06/30 05:58:48;;;;;;;17.88;7.90;;;20.40;99.90;;;;;;10172843;29;20064;-66
2022/06/30 06:03:50;;;;;;;16.13;8.43;;;20.60;99.90;;;;;;10180694;28;20178;-66
2022/06/30 06:08:51;;;;;;;13.35;7.65;;;20.70;99.90;;;;;;10186865;29;20111;-67
2022/06/30 06:13:53;;;;;;;13.90;8.05;;;20.80;99.90;;;;;;10179026;29;20052;-66
2022/06/30 06:18:55;;;;;;;16.50;7.95;;;21.00;99.90;;;;;;10173711;29;20403;-65
2022/06/30 06:23:56;;;;;;;17.27;8.32;;;21.10;99.90;;;;;;10172309;29;20052;-65
2022/06/30 06:29:08;;;;;;;15.23;7.85;;;21.30;99.90;;;;;;10188421;29;20487;-65
2022/06/30 06:34:10;;;;;;;18.67;7.90;;;21.50;99.90;;;;;;10187805;29;20044;-65
2022/06/30 06:39:11;;;;;;;10.18;7.13;;;21.60;99.90;;;;;;10184193;29;20051;-65
2022/06/30 06:44:13;;;;;;;12.77;7.35;;;21.80;99.90;;;;;;10191303;29;21156;-65
2022/06/30 06:49:15;;;;;;;11.45;7.13;;;22.00;99.90;;;;;;10186455;29;20063;-66
2022/06/30 06:54:16;;;;;;;12.25;7.55;;;22.20;99.90;;;;;;10184410;29;20063;-66
2022/06/30 06:59:19;;;;;;;12.68;6.75;;;22.30;99.90;;;;;;10182406;29;20048;-66
2022/06/30 07:04:20;;;;;;;13.98;6.65;;;22.50;99.90;;;;;;10184646;28;20487;-66
2022/06/30 07:09:22;;;;;;;9.00;5.97;;;22.60;99.90;;;;;;10187683;29;20059;-66
2022/06/30 07:14:24;;;;;;;16.80;6.72;;;22.80;99.90;;;;;;10183885;28;20059;-65
2022/06/30 07:19:26;;;;;;;10.32;6.15;;;23.00;99.90;;;;;;10183171;28;20048;-66
2022/06/30 07:24:27;;;;;;;8.10;6.32;;;23.10;99.90;;;;;;10177254;28;20063;-66
2022/06/30 07:29:30;;;;;;;11.35;5.85;;;23.20;99.90;;;;;;10159220;29;20056;-66
2022/06/30 07:34:32;;;;;;;16.27;6.57;;;23.30;99.90;;;;;;10187613;29;20055;-66
2022/06/30 07:39:34;;;;;;;9.48;5.95;;;23.50;99.90;;;;;;10178704;29;20047;-66
2022/06/30 07:44:35;;;;;;;9.35;6.07;;;23.70;99.90;;;;;;10186348;29;20047;-66
2022/06/30 07:49:38;;;;;;;9.50;5.88;;;23.90;99.90;;;;;;10168640;28;20133;-65
2022/06/30 07:54:40;;;;;;;12.35;5.85;;;23.90;99.90;;;;;;10183986;29;20059;-66
2022/06/30 07:59:42;;;;;;;9.55;6.65;;;24.20;99.90;;;;;;10178544;29;20066;-65
2022/06/30 08:04:44;;;;;;;10.55;5.60;;;24.20;99.90;;;;;;10179501;29;20067;-63
2022/06/30 08:09:46;;;;;;;8.73;5.20;;;24.30;99.90;;;;;;10177612;28;20040;-64
2022/06/30 08:14:47;;;;;;;10.13;5.53;;;24.50;99.90;;;;;;10173729;29;20063;-64
2022/06/30 08:19:49;;;;;;;7.00;4.90;;;24.70;99.90;;;;;;10179833;29;20737;-63
2022/06/30 08:24:51;;;;;;;6.45;4.13;;;24.80;99.90;;;;;;10176138;29;20059;-63
2022/06/30 08:29:53;;;;;;;5.40;4.47;;;25.20;99.90;;;;;;10166588;29;20066;-66
2022/06/30 08:34:55;;;;;;;6.70;5.22;;;25.30;99.90;;;;;;10183238;29;20148;-66
2022/06/30 08:45:17;;;;;;;6.53;3.78;;;25.40;99.90;;;;;;10188677;29;21472;-66
2022/06/30 08:50:19;;;;;;;6.65;4.47;;;25.70;99.90;;;;;;10170804;29;20067;-66
2022/06/30 08:55:25;;;;;;;6.68;4.18;;;26.00;99.90;;;;;;10175429;29;20055;-65
2022/06/30 09:00:27;;;;;;;6.30;3.75;;;26.20;99.90;;;;;;10170617;29;20074;-65
2022/06/30 09:05:29;;;;;;;3.97;3.50;;;26.50;99.90;;;;;;10167805;29;20309;-66
2022/06/30 09:10:31;;;;;;;10.20;3.35;;;26.40;99.90;;;;;;10178921;29;20058;-65
2022/06/30 09:15:38;;;;;;;6.47;4.43;;;26.70;99.90;;;;;;10173747;29;20062;-65
2022/06/30 09:20:40;;;;;;;6.97;3.63;;;27.00;99.90;;;;;;10174468;29;20119;-65
2022/06/30 09:25:45;;;;;;;5.97;3.70;;;27.30;99.90;;;;;;10174192;29;20063;-65
2022/06/30 09:30:47;;;;;;;5.03;3.33;;;27.40;99.90;;;;;;10186611;29;20503;-65
2022/06/30 09:35:48;;;;;;;3.58;3.22;;;27.60;99.90;;;;;;10183590;29;20122;-65
2022/06/30 09:41:02;;;;;;;4.25;2.83;;;27.90;99.90;;;;;;10185598;29;20534;-66
2022/06/30 09:46:05;;;;;;;2.15;1.95;;;27.90;99.90;;;;;;10175944;29;20131;-65
2022/06/30 09:51:07;;;;;;;4.82;2.22;;;28.00;99.90;;;;;;10185984;29;20145;-65
2022/06/30 09:56:13;;;;;;;3.55;2.25;;;28.00;98.90;;;;;;10180571;29;20443;-66
2022/06/30 10:01:15;;;;;;;5.35;2.47;;;28.40;99.70;;;;;;10184973;29;20506;-65
2022/06/30 10:06:17;;;;;;;5.25;2.30;;;28.40;98.30;;;;;;10186497;29;20071;-65
2022/06/30 10:11:19;;;;;;;5.13;2.80;;;28.80;98.70;;;;;;10179897;29;20066;-65
2022/06/30 10:16:22;;;;;;;3.13;2.28;;;28.90;96.80;;;;;;10171762;29;20569;-66
2022/06/30 10:21:24;;;;;;;4.93;2.60;;;29.10;96.90;;;;;;10180687;29;20061;-63
2022/06/30 10:31:54;;;;;;;3.35;2.70;;;29.30;95.40;;;;;;10177098;29;20075;-64
2022/06/30 10:37:15;;;;;;;2.28;1.77;;;29.60;95.10;;;;;;10184804;29;20462;-63
2022/06/30 10:42:43;;;;;;;2.88;2.25;;;29.80;93.80;;;;;;10183353;29;20128;-63
2022/06/30 10:47:58;;;;;;;2.85;1.90;;;30.10;92.90;;;;;;10168471;28;20694;-64
2022/06/30 10:53:06;;;;;;;3.85;2.03;;;30.20;92.80;;;;;;10169657;29;20051;-64
2022/06/30 10:58:08;;;;;;;3.05;2.20;;;30.00;91.00;;;;;;10168726;29;20048;-62
2022/06/30 11:03:29;;;;;;;3.95;2.08;;;30.80;90.70;;;;;;10194309;29;20063;-63
2022/06/30 11:08:57;;;;;;;4.05;2.55;;;31.20;90.40;;;;;;10189363;29;20055;-62
2022/06/30 11:14:06;;;;;;;4.20;2.10;;;31.30;87.90;;;;;;10182925;28;20058;-63
2022/06/30 11:19:15;;;;;;;3.33;2.05;;;31.80;85.90;;;;;;10192059;29;20055;-62
2022/06/30 11:24:22;;;;;;;4.38;1.55;;;32.00;84.20;;;;;;10189847;29;20051;-66
2022/06/30 11:29:28;;;;;;;3.47;1.65;;;32.20;83.90;;;;;;10171616;29;20059;-67
2022/06/30 11:34:31;;;;;;;5.28;1.52;;;32.60;82.70;;;;;;10173341;29;20112;-66
2022/06/30 11:39:33;;;;;;;1.63;1.52;;;32.50;79.90;;;;;;10170618;29;20079;-66
2022/06/30 11:44:41;;;;;;;4.15;1.77;;;32.80;79.30;;;;;;10188712;29;20055;-67
2022/06/30 11:49:49;;;;;;;2.60;1.38;;;33.20;76.70;;;;;;10174419;29;20132;-68
2022/06/30 11:54:58;;;;;;;2.90;1.65;;;33.50;76.20;;;;;;10176641;29;20063;-67
2022/06/30 12:00:05;;;;;;;2.03;1.77;;;33.50;74.30;;;;;;10169009;29;20060;-67
2022/06/30 12:05:09;;;;;;;3.22;1.73;;;32.80;71.50;;;;;;10180630;29;20118;-67
2022/06/30 12:10:14;;;;;;;2.40;1.60;;;32.90;71.90;;;;;;10183924;29;20052;-67
2022/06/30 12:15:18;;;;;;;2.53;1.60;;;32.80;70.40;;;;;;10183553;29;20060;-67
2022/06/30 12:20:22;;;;;;;1.70;1.43;;;32.90;68.10;;;;;;10180393;29;20055;-67
2022/06/30 12:25:23;;;;;;;3.55;1.40;;;32.50;66.80;;;;;;10172637;29;20054;-68
2022/06/30 12:30:36;;;;;;;3.90;1.77;;;31.90;69.00;;;;;;10166947;28;20104;-67
2022/06/30 12:35:38;;;;;;;4.10;2.05;;;31.90;68.30;;;;;;10178201;29;20063;-67
2022/06/30 12:40:40;;;;;;;5.57;1.38;;;32.70;67.60;;;;;;10166719;28;20627;-67
2022/06/30 12:45:55;;;;;;;3.55;1.45;;;32.70;66.80;;;;;;10179984;29;20500;-67
2022/06/30 12:50:57;;;;;;;1.98;1.63;;;32.90;68.60;;;;;;10175337;29;20105;-67
2022/06/30 12:56:13;;;;;;;6.40;1.77;;;33.30;66.80;;;;;;10214697;23;20049;-90
2022/06/30 13:01:24;;;;;;;1.40;1.25;;;33.40;65.60;;;;;;10184126;29;20455;-92
2022/06/30 13:06:32;;;;;;;2.90;1.13;;;33.40;64.70;;;;;;10146584;29;20127;-91
2022/06/30 13:11:37;;;;;;;4.03;1.85;;;33.30;65.40;;;;;;10139609;29;20155;-92
2022/06/30 13:16:39;;;;;;;2.10;1.70;;;33.10;63.10;;;;;;10092344;29;20384;-92
2022/06/30 13:21:42;;;;;;;3.97;1.45;;;33.30;64.70;;;;;;10087050;29;20055;-92
2022/06/30 13:26:49;;;;;;;3.45;1.48;;;33.60;64.70;;;;;;10111269;29;20122;-92
2022/06/30 13:31:51;;;;;;;7.68;2.33;;;33.20;64.50;;;;;;10124210;29;20060;-92
2022/06/30 13:36:53;;;;;;;2.70;1.25;;;32.40;65.70;;;;;;10069207;29;20056;-92
2022/06/30 13:41:55;;;;;;;1.98;1.88;;;32.70;64.00;;;;;;10121689;29;20060;-92
2022/06/30 13:46:59;;;;;;;4.35;1.83;;;32.60;63.50;;;;;;10120931;29;20481;-92
2022/06/30 13:52:06;;;;;;;2.22;1.35;;;33.10;64.70;;;;;;9898813;29;20044;-93
2022/06/30 13:58:02;;;;;;;5.05;1.85;;;33.70;63.10;;;;;;9993046;29;20063;-92
2022/06/30 14:03:06;;;;;;;3.60;1.38;;;34.00;61.00;;;;;;10054121;29;20064;-92
2022/06/30 14:08:14;;;;;;;3.60;1.13;;;34.50;59.60;;;;;;10138492;29;22635;-92
2022/06/30 14:13:16;;;;;;;3.97;1.30;;;34.50;59.90;;;;;;10134879;29;20135;-92
2022/06/30 14:18:21;;;;;;;5.03;1.83;;;34.50;58.50;;;;;;10119526;29;20063;-92
2022/06/30 14:23:23;;;;;;;2.17;1.70;;;33.90;59.50;;;;;;10106129;29;20044;-92
2022/06/30 14:28:25;;;;;;;2.60;1.00;;;33.40;60.20;;;;;;10082432;29;20049;-92
2022/06/30 14:33:27;;;;;;;3.92;0.90;;;33.40;58.00;;;;;;10116895;29;20064;-92
2022/06/30 14:38:29;;;;;;;0.95;0.85;;;33.80;56.60;;;;;;10121179;29;20060;-92
2022/06/30 14:43:31;;;;;;;1.65;1.23;;;33.40;55.40;;;;;;10127561;29;20067;-92
2022/06/30 14:48:35;;;;;;;1.97;0.87;;;34.10;57.10;;;;;;10120216;29;20060;-91
2022/06/30 14:53:58;;;;;;;1.63;0.75;;;34.50;56.70;;;;;;10118921;29;20352;-91
2022/06/30 14:59:00;;;;;;;1.48;0.60;;;34.90;55.80;;;;;;10102452;29;20103;-91
2022/06/30 15:04:02;;;;;;;3.45;0.60;;;35.20;52.00;;;;;;10121143;29;20068;-91
2022/06/30 15:09:05;;;;;;;0.98;0.60;;;35.60;52.40;;;;;;10119659;29;20141;-92
2022/06/30 15:14:06;;;;;;;1.73;0.60;;;35.50;51.30;;;;;;10094679;29;20056;-92
2022/06/30 15:19:09;;;;;;;0.77;0.50;;;36.00;52.50;;;;;;10116263;29;20120;-91
2022/06/30 15:24:12;;;;;;;0.98;0.70;;;36.20;49.70;;;;;;10118196;29;20060;-90
2022/06/30 15:29:17;;;;;;;2.92;0.60;;;35.90;48.40;;;;;;10128684;29;20052;-90
2022/06/30 15:34:20;;;;;;;2.95;0.60;;;36.20;48.80;;;;;;10109511;29;20428;-90
2022/06/30 15:39:42;;;;;;;2.95;0.63;;;36.10;48.40;;;;;;10132598;29;20100;-90
2022/06/30 15:44:50;;;;;;;2.97;0.90;;;35.70;48.50;;;;;;10123270;29;20085;-90
2022/06/30 15:49:54;;;;;;;1.20;0.43;;;35.00;48.80;;;;;;10126527;29;20374;-90
2022/06/30 15:55:00;;;;;;;1.50;0.40;;;35.50;50.10;;;;;;10102532;29;20052;-90
2022/06/30 16:00:05;;;;;;;3.13;0.50;;;35.70;49.60;;;;;;10128031;29;20053;-90
2022/06/30 16:05:08;;;;;;;2.30;0.60;;;35.30;48.50;;;;;;10126103;29;20043;-91
2022/06/30 16:10:10;;;;;;;3.90;0.50;;;36.10;48.90;;;;;;10118608;29;20052;-90
2022/06/30 16:15:12;;;;;;;0.43;0.40;;;36.40;48.30;;;;;;10128097;29;20123;-90
2022/06/30 16:20:14;;;;;;;1.67;0.50;;;36.10;48.10;;;;;;10086529;29;20032;-90
2022/06/30 16:25:15;;;;;;;2.45;0.40;;;36.60;48.50;;;;;;10112763;29;20080;-91
2022/06/30 16:30:18;;;;;;;0.80;0.40;;;36.20;49.00;;;;;;10121819;29;20056;-90
2022/06/30 16:35:22;;;;;;;1.88;0.47;;;35.80;48.60;;;;;;10110304;29;20411;-91
2022/06/30 16:40:24;;;;;;;2.38;0.43;;;35.40;49.10;;;;;;10124098;29;20091;-91
2022/06/30 16:45:29;;;;;;;1.98;0.50;;;35.00;48.20;;;;;;10115075;29;20064;-90
2022/06/30 16:50:31;;;;;;;;;;;34.40;48.40;;;;;;10109740;29;20056;-91
2022/06/30 16:55:34;;;;;;;3.65;0.52;;;34.30;49.70;;;;;;10122612;29;19923;-90
2022/06/30 17:00:38;;;;;;;0.55;0.45;;;33.70;49.90;;;;;;10123263;29;20594;-90
2022/06/30 17:05:45;;;;;;;0.63;0.38;;;33.50;49.30;;;;;;10101202;29;20056;-89
2022/06/30 17:10:46;;;;;;;1.27;0.40;;;33.50;51.30;;;;;;10044068;29;20128;-89
2022/06/30 17:15:48;;;;;;;1.27;0.40;;;33.40;50.30;;;;;;10021259;29;20516;-90
2022/06/30 17:20:50;;;;;;;0.73;0.40;;;33.10;51.30;;;;;;10056138;29;20044;-87
2022/06/30 17:25:59;;;;;;;1.52;0.50;;;33.00;51.00;;;;;;10143270;29;20111;-92
2022/06/30 17:31:06;;;;;;;0.55;0.30;;;33.20;51.50;;;;;;10106605;29;20175;-91
2022/06/30 17:36:10;;;;;;;1.10;0.50;;;32.80;50.70;;;;;;10096700;29;20052;-91
2022/06/30 17:41:12;;;;;;;1.30;0.50;;;32.50;51.40;;;;;;10137996;29;20119;-92
2022/06/30 17:46:14;;;;;;;1.13;0.40;;;32.30;51.00;;;;;;10124761;29;20060;-92
2022/06/30 17:51:16;;;;;;;1.75;0.45;;;32.20;52.40;;;;;;10132152;29;20066;-91
2022/06/30 17:56:19;;;;;;;2.55;0.70;;;32.00;52.70;;;;;;10119284;29;20272;-92
2022/06/30 18:01:22;;;;;;;1.02;0.40;;;31.80;52.30;;;;;;10146693;29;20080;-92
2022/06/30 18:11:44;;;;;;;1.92;0.60;;;31.20;52.70;;;;;;10132699;29;20115;-91
2022/06/30 18:16:47;;;;;;;1.33;0.50;;;31.10;53.30;;;;;;10173873;29;20067;-92
2022/06/30 18:21:49;;;;;;;0.80;0.60;;;30.90;53.30;;;;;;10180723;28;20051;-91
2022/06/30 18:26:51;;;;;;;1.80;0.50;;;30.80;54.60;;;;;;10187802;29;20124;-92
2022/06/30 18:32:00;;;;;;;2.17;0.50;;;30.70;55.20;;;;;;10172425;29;20079;-92
2022/06/30 18:37:06;;;;;;;2.83;0.60;;;30.60;55.50;;;;;;10149642;29;20052;-90
2022/06/30 18:48:07;;;;;;;1.05;0.50;;;30.30;55.90;;;;;;9835607;29;20423;-90
2022/06/30 18:53:09;;;;;;;4.10;0.90;;;30.10;56.70;;;;;;10165936;29;20141;-90
2022/06/30 18:58:11;;;;;;;3.00;0.70;;;29.90;57.50;;;;;;10137019;29;20048;-90
2022/06/30 19:03:13;;;;;;;1.67;0.60;;;29.80;57.80;;;;;;10181423;29;20051;-90
2022/06/30 19:08:26;;;;;;;2.13;1.02;;;29.50;59.30;;;;;;10104291;29;21499;-90
2022/06/30 19:13:40;;;;;;;1.92;0.60;;;28.60;64.20;;;;;;9887139;29;20130;-90
2022/06/30 19:18:50;;;;;;;0.60;0.52;;;28.10;68.30;;;;;;9816453;29;20488;-89
2022/06/30 19:23:57;;;;;;;5.18;0.77;;;27.30;73.90;;;;;;9806562;29;20110;-89
2022/06/30 19:29:07;;;;;;;1.75;0.70;;;26.90;77.50;;;;;;9707134;29;20091;-89
2022/06/30 19:34:31;;;;;;;5.97;0.60;;;26.50;79.30;;;;;;9939029;29;20512;-89
2022/06/30 19:39:35;;;;;;;2.72;0.80;;;26.40;80.10;;;;;;10178931;29;20082;-88
2022/06/30 19:44:39;;;;;;;5.18;0.68;;;26.30;81.40;;;;;;10142379;29;20154;-89
2022/06/30 19:49:43;;;;;;;2.58;0.90;;;26.20;82.80;;;;;;9799837;23;20053;-65
2022/06/30 19:54:45;;;;;;;1.25;0.65;;;26.20;83.40;;;;;;10156436;29;20059;-65
2022/06/30 19:59:50;;;;;;;2.00;0.60;;;26.10;84.70;;;;;;10168916;29;20054;-65
2022/06/30 20:05:01;;;;;;;2.33;0.57;;;26.10;85.80;;;;;;10166362;29;20422;-65
2022/06/30 20:15:24;;;;;;;6.53;0.85;;;25.60;91.40;;;;;;10168835;29;20071;-59
2022/06/30 20:20:26;;;;;;;2.72;0.77;;;25.10;93.80;;;;;;10165298;29;20063;-61
2022/06/30 20:25:27;;;;;;;2.30;0.65;;;24.80;95.40;;;;;;10168312;28;20102;-67
2022/06/30 20:30:30;;;;;;;3.70;0.50;;;24.50;95.90;;;;;;10168498;29;20095;-67
2022/06/30 20:35:32;;;;;;;2.40;0.75;;;23.90;97.00;;;;;;10162576;28;20063;-70
2022/06/30 20:40:34;;;;;;;2.58;0.50;;;23.10;99.10;;;;;;10169082;29;20123;-67
2022/06/30 20:45:36;;;;;;;5.32;0.80;;;22.20;99.90;;;;;;10168922;29;20071;-68
2022/06/30 20:55:58;;;;;;;1.02;0.90;;;21.30;99.90;;;;;;10161913;29;20078;-68
2022/06/30 21:01:00;;;;;;;2.72;0.70;;;20.60;99.90;;;;;;10168315;29;20062;-68
2022/06/30 21:06:02;;;;;;;1.23;0.60;;;20.50;99.90;;;;;;10165009;29;20082;-67
2022/06/30 21:11:03;;;;;;;0.82;0.50;;;20.10;99.90;;;;;;10163089;29;20056;-68
2022/06/30 21:16:05;;;;;;;0.30;0.30;;;19.90;99.90;;;;;;10168645;28;20611;-62
2022/06/30 21:21:08;;;;;;;2.13;0.30;;;19.50;99.90;;;;;;10175656;29;20490;-61
2022/06/30 21:26:10;;;;;;;0.68;0.30;;;19.20;99.90;;;;;;10173146;29;20056;-62
2022/06/30 21:31:11;;;;;;;0.20;0.20;;;19.20;99.90;;;;;;10172770;29;20047;-63
2022/06/30 21:36:13;;;;;;;1.30;0.30;;;19.10;99.90;;;;;;10176085;29;20438;-62
2022/06/30 21:41:15;;;;;;;0.22;0.20;;;19.10;99.90;;;;;;10172727;29;20523;-61
2022/06/30 21:46:17;;;;;;;0.75;0.20;;;19.00;99.90;;;;;;10173681;28;20068;-62
2022/06/30 21:51:19;;;;;;;0.40;0.20;;;19.20;99.90;;;;;;10166972;29;20063;-62
2022/06/30 21:56:21;;;;;;;0.75;0.20;;;19.20;99.90;;;;;;10169966;29;20059;-62
2022/06/30 22:01:23;;;;;;;0.52;0.10;;;19.30;99.90;;;;;;10166222;29;20083;-61
2022/06/30 22:06:24;;;;;;;0.80;0.20;;;19.40;99.90;;;;;;10168051;29;20062;-61
2022/06/30 22:11:26;;;;;;;0.20;0.10;;;19.40;99.90;;;;;;10174157;29;20142;-61
2022/06/30 22:16:28;;;;;;;2.30;0.10;;;19.50;99.90;;;;;;10173545;29;20049;-61
2022/06/30 22:21:30;;;;;;;0.50;0.10;;;19.40;99.90;;;;;;10173257;29;20051;-61
2022/06/30 22:26:32;;;;;;;0.10;0.10;;;19.30;99.90;;;;;;10168015;29;20123;-62
2022/06/30 22:31:33;;;;;;;0.73;0.20;;;19.30;99.90;;;;;;10169785;29;20056;-61
2022/06/30 22:36:41;;;;;;;1.75;0.15;;;19.20;99.90;;;;;;10179919;29;20138;-61
2022/06/30 22:41:43;;;;;;;0.55;0.20;;;19.00;99.90;;;;;;10172745;28;20411;-60
2022/06/30 22:46:45;;;;;;;0.30;0.17;;;19.00;99.90;;;;;;10170778;29;20089;-61
2022/06/30 22:51:46;;;;;;;0.40;0.10;;;18.90;99.90;;;;;;10173541;29;20146;-61
2022/06/30 22:56:48;;;;;;;0.30;0.10;;;18.80;99.90;;;;;;10170934;29;20048;-61
2022/06/30 23:01:50;;;;;;;0.30;0.20;;;18.90;99.90;;;;;;10169181;29;20055;-61
2022/06/30 23:06:51;;;;;;;0.10;0.10;;;19.00;99.90;;;;;;10166621;29;20043;-61
2022/06/30 23:11:56;;;;;;;0.20;0.15;;;19.10;99.90;;;;;;10175408;29;20115;-61
2022/06/30 23:17:00;;;;;;;0.68;0.20;;;19.00;99.90;;;;;;10167805;28;20048;-62
2022/06/30 23:22:02;;;;;;;0.45;0.15;;;19.00;99.90;;;;;;10169600;29;20135;-61
2022/06/30 23:27:04;;;;;;;0.70;0.10;;;19.00;99.90;;;;;;10173037;29;20062;-62
2022/06/30 23:32:06;;;;;;;1.50;0.10;;;19.00;99.90;;;;;;10167902;29;20516;-61
2022/06/30 23:37:08;;;;;;;0.45;0.20;;;19.00;99.90;;;;;;10169526;28;20052;-62
2022/06/30 23:42:10;;;;;;;0.68;0.30;;;19.00;99.90;;;;;;10171933;29;20048;-62
2022/06/30 23:47:11;;;;;;;0.95;0.10;;;19.00;99.90;;;;;;10170634;29;20048;-61
2022/06/30 23:52:13;;;;;;;0.10;0.10;;;19.00;99.90;;;;;;10170304;28;20063;-61
2022/06/30 23:57:15;;;;;;;1.00;0.10;;;19.10;99.90;;;;;;10167974;29;20068;-61
